Time;durP1;ratioP1;P1;durP2;ratioP2;P2;SDS_P1;SDS_P2;PMS_P1;PMS_P2;Temp;Humidity;BMP_temperature;BMP_pressure;BME280_temperature;BME280_humidity;BME280_pressure;Samples;Min_cycle;Max_cycle;Signal;HPM_P1;HPM_P2
2022/10/08 00:00:28;;;;;;;1.55;0.57;;;;;;;-140.72;100.00;52770.31;5048031;28;20457;-67
2022/10/08 00:02:53;;;;;;;0.68;0.40;;;;;;;-140.72;100.00;52776.41;5049212;28;20032;-68
2022/10/08 00:05:19;;;;;;;4.68;0.63;;;;;;;-140.72;100.00;52758.16;5046443;28;20419;-68
2022/10/08 00:07:45;;;;;;;0.55;0.30;;;;;;;-140.72;100.00;52731.75;5047728;28;20477;-68
2022/10/08 00:10:10;;;;;;;1.00;0.45;;;;;;;-140.72;100.00;52743.94;5048592;28;20028;-68
2022/10/08 00:12:36;;;;;;;0.82;0.32;;;;;;;-140.72;100.00;52764.25;5048649;28;20056;-68
2022/10/08 00:15:02;;;;;;;3.67;0.77;;;;;;;-140.72;100.00;52756.13;5050391;28;20033;-68
2022/10/08 00:17:28;;;;;;;1.20;0.50;;;;;;;-140.72;100.00;52778.44;5050032;28;20515;-67
2022/10/08 00:19:56;;;;;;;1.17;0.50;;;;;;;-140.72;100.00;52750.03;5043977;28;20032;-67
2022/10/08 00:22:21;;;;;;;2.15;0.80;;;;;;;-140.72;100.00;52731.75;5043141;28;20063;-67
2022/10/08 00:24:48;;;;;;;2.42;0.80;;;;;;;-140.72;100.00;52778.44;5047110;28;20377;-67
2022/10/08 00:27:15;;;;;;;0.82;0.47;;;;;;;-140.72;100.00;52766.25;5049782;28;20067;-67
2022/10/08 00:29:43;;;;;;;2.78;1.10;;;;;;;-140.72;100.00;52790.63;5049667;28;20025;-67
2022/10/08 00:32:10;;;;;;;4.82;1.00;;;;;;;-140.72;100.00;52766.25;5037566;28;20041;-68
2022/10/08 00:34:37;;;;;;;5.07;1.10;;;;;;;-140.72;100.00;52762.22;5040011;28;20028;-69
2022/10/08 00:37:02;;;;;;;5.55;0.70;;;;;;;-140.72;100.00;52752.06;5038917;28;20141;-69
2022/10/08 00:39:28;;;;;;;4.38;0.85;;;;;;;-140.72;100.00;52782.50;5045040;28;20931;-69
2022/10/08 00:41:55;;;;;;;3.05;1.50;;;;;;;-140.72;100.00;52770.31;5045044;28;20021;-69
2022/10/08 00:44:41;;;;;;;3.75;1.20;;;;;;;-140.72;100.00;52770.31;5050398;28;20025;-70
2022/10/08 00:47:19;;;;;;;2.28;1.08;;;;;;;-140.72;100.00;52780.47;5040736;28;20469;-69
2022/10/08 00:49:48;;;;;;;3.65;0.85;;;;;;;-140.72;100.00;52768.28;5041811;28;20037;-69
2022/10/08 00:52:14;;;;;;;5.68;0.63;;;;;;;-140.72;100.00;52752.06;5050319;28;20028;-69
2022/10/08 00:54:40;;;;;;;2.75;1.45;;;;;;;-140.72;100.00;52750.03;5042923;28;20021;-68
2022/10/08 00:57:07;;;;;;;2.83;1.30;;;;;;;-140.72;100.00;52784.53;5047944;28;20421;-68
2022/10/08 00:59:35;;;;;;;2.58;0.68;;;;;;;-140.72;100.00;52768.28;5047366;28;20031;-69
2022/10/08 01:02:00;;;;;;;2.47;0.90;;;;;;;-140.72;100.00;52784.53;5049735;28;20028;-68
2022/10/08 01:04:26;;;;;;;5.28;1.40;;;;;;;-140.72;100.00;52768.28;5043701;28;20406;-68
2022/10/08 01:07:17;;;;;;;1.02;0.70;;;;;;;-140.72;100.00;52760.19;5044856;28;20465;-68
2022/10/08 01:10:01;;;;;;;2.03;0.88;;;;;;;-140.72;100.00;52770.31;5045181;28;20021;-68
2022/10/08 01:12:45;;;;;;;2.83;0.77;;;;;;;-140.72;100.00;52768.28;5049812;28;20093;-68
2022/10/08 01:15:35;;;;;;;1.67;0.63;;;;;;;-140.72;100.00;52812.94;5047197;28;20017;-68
2022/10/08 01:18:00;;;;;;;2.40;0.95;;;;;;;-140.72;100.00;52796.72;5044316;28;20044;-68
2022/10/08 01:20:30;;;;;;;1.40;0.70;;;;;;;-140.72;100.00;52770.31;5043798;28;20112;-68
2022/10/08 01:23:24;;;;;;;1.15;0.70;;;;;;;-140.72;100.00;52739.88;5039448;28;20036;-68
2022/10/08 01:26:02;;;;;;;3.10;1.10;;;;;;;-140.72;100.00;52760.19;5045207;28;20045;-68
2022/10/08 01:28:36;;;;;;;4.80;0.70;;;;;;;-140.72;100.00;52782.50;5041108;28;20032;-68
2022/10/08 01:31:21;;;;;;;2.47;0.77;;;;;;;-140.72;100.00;52792.66;5043151;28;20020;-68
2022/10/08 01:34:03;;;;;;;2.10;0.95;;;;;;;-140.72;100.00;52733.78;5056858;28;20103;-68
2022/10/08 01:36:47;;;;;;;0.65;0.43;;;;;;;-140.72;100.00;52792.66;5046907;28;20499;-67
2022/10/08 01:39:17;;;;;;;2.22;0.85;;;;;;;-140.72;100.00;52784.53;5047440;28;20044;-68
2022/10/08 01:41:48;;;;;;;1.58;0.88;;;;;;;-140.72;100.00;52792.66;5044474;28;20017;-68
2022/10/08 01:44:23;;;;;;;3.75;1.00;;;;;;;-140.72;100.00;52760.19;5046408;28;20108;-68
2022/10/08 01:46:51;;;;;;;1.20;0.65;;;;;;;-140.72;100.00;52784.53;5046755;28;20430;-68
2022/10/08 01:49:21;;;;;;;1.40;0.60;;;;;;;-140.72;100.00;52774.38;5042496;28;20021;-68
2022/10/08 01:52:03;;;;;;;1.38;0.93;;;;;;;-140.72;100.00;52762.22;5042016;28;20037;-69
2022/10/08 01:54:33;;;;;;;2.10;0.80;;;;;;;-140.72;100.00;52808.88;5046533;28;20025;-68
2022/10/08 01:57:01;;;;;;;1.98;1.15;;;;;;;-140.72;100.00;52760.19;5042810;28;20108;-67
2022/10/08 01:59:36;;;;;;;2.08;1.15;;;;;;;-140.72;100.00;52754.09;5042649;28;20059;-68
2022/10/08 02:02:11;;;;;;;2.15;1.15;;;;;;;-140.72;100.00;52756.13;5044422;28;20029;-68
2022/10/08 02:04:40;;;;;;;3.55;1.23;;;;;;;-140.72;100.00;52782.50;5042121;28;20024;-68
2022/10/08 02:07:18;;;;;;;3.13;1.33;;;;;;;-140.72;100.00;52823.09;5039031;28;20024;-68
2022/10/08 02:10:04;;;;;;;4.18;0.77;;;;;;;-140.72;100.00;52786.56;5046236;28;20025;-68
2022/10/08 02:12:30;;;;;;;1.45;0.73;;;;;;;-140.72;100.00;52788.59;5035317;28;20080;-68
2022/10/08 02:14:57;;;;;;;2.95;1.33;;;;;;;-140.72;100.00;52766.25;5045332;28;20044;-68
2022/10/08 02:17:27;;;;;;;2.40;1.02;;;;;;;-140.72;100.00;52741.91;5046587;28;20029;-68
2022/10/08 02:20:01;;;;;;;2.88;1.35;;;;;;;-140.72;100.00;52764.25;5045961;28;20027;-68
2022/10/08 02:22:59;;;;;;;3.72;1.42;;;;;;;-140.72;100.00;52800.75;5049922;28;20041;-68
2022/10/08 02:26:01;;;;;;;3.58;1.42;;;;;;;-140.72;100.00;52792.66;5043723;28;20045;-68
2022/10/08 02:28:42;;;;;;;2.90;1.02;;;;;;;-140.72;100.00;52788.59;5046146;28;20017;-68
2022/10/08 02:31:33;;;;;;;3.45;1.67;;;;;;;-140.72;100.00;52776.41;5042843;28;20020;-68
2022/10/08 02:34:33;;;;;;;2.83;1.30;;;;;;;-140.72;100.00;52776.41;5044066;28;20045;-68
2022/10/08 02:37:01;;;;;;;2.30;1.27;;;;;;;-140.72;100.00;52794.69;5044939;28;20031;-68
2022/10/08 02:39:30;;;;;;;2.83;1.08;;;;;;;-140.72;100.00;52784.53;5045311;28;20067;-68
2022/10/08 02:41:59;;;;;;;4.35;1.80;;;;;;;-140.72;100.00;52802.78;5038870;28;20025;-68
2022/10/08 02:44:40;;;;;;;5.15;0.90;;;;;;;-140.72;100.00;52814.97;5047739;28;20481;-68
2022/10/08 02:47:14;;;;;;;3.22;1.60;;;;;;;-140.72;100.00;52760.19;5042093;28;20474;-68
2022/10/08 02:49:44;;;;;;;3.53;1.63;;;;;;;-140.72;100.00;52800.75;5043052;28;20084;-68
2022/10/08 02:52:15;;;;;;;4.85;1.50;;;;;;;-140.72;100.00;52831.19;5043870;28;20092;-68
2022/10/08 02:54:42;;;;;;;5.13;1.05;;;;;;;-140.72;100.00;52792.66;5046846;28;20085;-67
2022/10/08 02:57:17;;;;;;;4.07;1.42;;;;;;;-140.72;100.00;52796.72;5044464;28;20401;-67
2022/10/08 02:59:44;;;;;;;3.35;1.33;;;;;;;-140.72;100.00;52819.03;5047426;28;20496;-67
2022/10/08 03:02:14;;;;;;;3.28;1.60;;;;;;;-140.72;100.00;52819.03;5044615;28;20037;-68
2022/10/08 03:04:45;;;;;;;1.33;0.73;;;;;;;-140.72;100.00;52764.25;5046775;28;20103;-68
2022/10/08 03:07:12;;;;;;;1.80;0.88;;;;;;;-140.72;100.00;52827.16;5045470;28;20037;-67
2022/10/08 03:09:42;;;;;;;2.30;0.93;;;;;;;-140.72;100.00;52825.13;5046305;28;20036;-67
2022/10/08 03:12:07;;;;;;;4.32;1.75;;;;;;;-140.72;100.00;52786.56;5045675;28;20497;-68
2022/10/08 03:14:42;;;;;;;2.40;0.95;;;;;;;-140.72;100.00;52829.19;5040134;28;20025;-67
2022/10/08 03:17:11;;;;;;;4.63;0.90;;;;;;;-140.72;100.00;52790.63;5047160;28;20070;-67
2022/10/08 03:19:37;;;;;;;3.28;1.17;;;;;;;-140.72;100.00;52817.00;5039597;28;20124;-68
2022/10/08 03:22:03;;;;;;;2.22;0.95;;;;;;;-140.72;100.00;52808.88;5039504;28;20104;-67
2022/10/08 03:24:28;;;;;;;5.40;0.93;;;;;;;-140.72;100.00;52782.50;5043243;28;20604;-68
2022/10/08 03:26:54;;;;;;;1.67;0.63;;;;;;;-140.72;100.00;52829.19;5044338;28;20032;-69
2022/10/08 03:29:20;;;;;;;2.08;0.88;;;;;;;-140.72;100.00;52833.22;5040384;28;20103;-68
2022/10/08 03:31:49;;;;;;;1.45;0.82;;;;;;;-140.72;100.00;52837.28;5044796;28;20540;-68
2022/10/08 03:34:15;;;;;;;3.28;0.98;;;;;;;-140.72;100.00;52817.00;5041371;28;20005;-68
2022/10/08 03:36:41;;;;;;;2.70;1.23;;;;;;;-140.72;100.00;52768.28;5043968;28;20023;-69
2022/10/08 03:39:07;;;;;;;2.85;1.13;;;;;;;-140.72;100.00;52837.28;5041733;28;20017;-68
2022/10/08 03:41:33;;;;;;;3.10;1.00;;;;;;;-140.72;100.00;52847.44;5043477;28;20131;-69
2022/10/08 03:43:59;;;;;;;8.80;1.42;;;;;;;-140.72;100.00;52821.06;5045434;28;20021;-67
2022/10/08 03:46:25;;;;;;;4.57;1.17;;;;;;;-140.72;100.00;52819.03;5046593;28;20025;-67
2022/10/08 03:48:50;;;;;;;3.67;0.95;;;;;;;-140.72;100.00;52821.06;5046224;28;20104;-67
2022/10/08 03:51:17;;;;;;;6.07;1.13;;;;;;;-140.72;100.00;52833.22;5045576;28;20026;-69
2022/10/08 03:53:43;;;;;;;2.97;0.82;;;;;;;-140.72;100.00;52829.19;5048501;28;20056;-68
2022/10/08 03:56:18;;;;;;;3.78;1.40;;;;;;;-140.72;100.00;52800.75;5040623;28;20028;-69
2022/10/08 03:58:44;;;;;;;5.43;2.30;;;;;;;-140.72;100.00;52794.69;5050880;28;20016;-68
2022/10/08 04:01:14;;;;;;;6.68;2.70;;;;;;;-140.72;100.00;52804.81;5052557;28;20549;-68
2022/10/08 04:03:40;;;;;;;7.60;3.45;;;;;;;-140.72;100.00;52825.13;5040363;28;20037;-69
2022/10/08 04:06:06;;;;;;;6.38;3.03;;;;;;;-140.72;100.00;52808.88;5049303;28;20032;-68
2022/10/08 04:08:32;;;;;;;9.20;3.53;;;;;;;-140.72;100.00;52831.19;5050465;28;20055;-69
2022/10/08 04:11:05;;;;;;;6.47;3.45;;;;;;;-140.72;100.00;52812.94;5048525;28;20457;-68
2022/10/08 04:13:31;;;;;;;3.55;2.20;;;;;;;-140.72;100.00;52812.94;5051844;28;20048;-68
2022/10/08 04:16:02;;;;;;;3.72;1.58;;;;;;;-140.72;100.00;52831.19;5050331;28;20099;-68
2022/10/08 04:18:28;;;;;;;3.58;1.95;;;;;;;-140.72;100.00;52859.63;5045284;28;20403;-68
2022/10/08 04:20:58;;;;;;;7.95;2.03;;;;;;;-140.72;100.00;52792.66;5050856;28;20029;-68
2022/10/08 04:23:23;;;;;;;2.70;1.48;;;;;;;-140.72;100.00;52812.94;5050816;28;20041;-67
2022/10/08 04:25:50;;;;;;;3.10;2.00;;;;;;;-140.72;100.00;52817.00;5049559;28;20028;-68
2022/10/08 04:28:16;;;;;;;2.95;0.95;;;;;;;-140.72;100.00;52875.84;5045371;28;20032;-68
2022/10/08 04:30:41;;;;;;;2.03;1.17;;;;;;;-140.72;100.00;52831.19;5043874;28;20141;-67
2022/10/08 04:33:10;;;;;;;2.67;1.05;;;;;;;-140.72;100.00;52829.19;5044089;28;20108;-68
2022/10/08 04:35:38;;;;;;;6.13;1.33;;;;;;;-140.72;100.00;52827.16;5047182;28;20036;-67
2022/10/08 04:38:03;;;;;;;3.85;1.77;;;;;;;-140.72;100.00;52879.91;5048003;28;20035;-68
2022/10/08 04:40:29;;;;;;;7.97;1.25;;;;;;;-140.72;100.00;52837.28;5039293;28;20026;-68
2022/10/08 04:42:54;;;;;;;1.90;0.88;;;;;;;-140.72;100.00;52831.19;5048948;28;20025;-67
2022/10/08 04:45:19;;;;;;;2.35;1.30;;;;;;;-140.72;100.00;52843.38;5047651;28;20031;-68
2022/10/08 04:47:45;;;;;;;2.03;0.75;;;;;;;-140.72;100.00;52829.19;5042796;28;20053;-68
2022/10/08 04:50:10;;;;;;;7.68;1.50;;;;;;;-140.72;100.00;52849.47;5045536;28;20085;-68
2022/10/08 04:52:36;;;;;;;1.13;0.65;;;;;;;-140.72;100.00;52819.03;5049139;28;20368;-68
2022/10/08 04:55:01;;;;;;;1.60;1.15;;;;;;;-140.72;100.00;52855.56;5050606;28;20032;-68
2022/10/08 04:57:27;;;;;;;1.90;1.25;;;;;;;-140.72;100.00;52875.84;5042384;28;20051;-68
2022/10/08 04:59:53;;;;;;;5.25;0.68;;;;;;;-140.72;100.00;52827.16;5037929;28;20204;-68
2022/10/08 05:02:18;;;;;;;2.38;0.98;;;;;;;-140.72;100.00;52827.16;5050534;28;20496;-69
2022/10/08 05:04:44;;;;;;;3.20;0.68;;;;;;;-140.72;100.00;52871.78;5048198;28;20017;-68
2022/10/08 05:07:09;;;;;;;4.50;1.10;;;;;;;-140.72;100.00;52845.41;5049909;28;20108;-68
2022/10/08 05:09:35;;;;;;;1.90;0.80;;;;;;;-140.72;100.00;52823.09;5042239;28;20041;-67
2022/10/08 05:12:00;;;;;;;2.10;0.70;;;;;;;-140.72;100.00;52851.50;5047379;28;20037;-68
2022/10/08 05:14:26;;;;;;;0.93;0.40;;;;;;;-140.72;100.00;52853.53;5038610;28;20083;-69
2022/10/08 05:16:52;;;;;;;2.33;0.98;;;;;;;-140.72;100.00;52853.53;5049181;28;20084;-68
2022/10/08 05:19:17;;;;;;;3.00;0.88;;;;;;;-140.72;100.00;52861.66;5044193;28;20025;-68
2022/10/08 05:21:42;;;;;;;4.78;0.75;;;;;;;-140.72;100.00;52845.41;5042804;28;20024;-68
2022/10/08 05:24:10;;;;;;;5.20;0.88;;;;;;;-140.72;100.00;52835.25;5042276;28;20354;-69
2022/10/08 05:26:38;;;;;;;3.58;0.70;;;;;;;-140.72;100.00;52861.66;5042310;28;20018;-67
2022/10/08 05:29:04;;;;;;;4.05;1.27;;;;;;;-140.72;100.00;52861.66;5038450;28;20474;-68
2022/10/08 05:31:34;;;;;;;2.67;1.02;;;;;;;-140.72;100.00;52886.00;5048495;28;20056;-68
2022/10/08 05:34:00;;;;;;;1.33;0.85;;;;;;;-140.72;100.00;52841.34;5047674;28;20025;-69
2022/10/08 05:36:27;;;;;;;2.78;0.75;;;;;;;-140.72;100.00;52831.19;5045822;28;20020;-68
2022/10/08 05:38:55;;;;;;;1.23;0.50;;;;;;;-140.72;100.00;52865.69;5046716;28;20425;-68
2022/10/08 05:41:39;;;;;;;1.02;0.30;;;;;;;-140.72;100.00;52829.19;5049485;28;20036;-68
2022/10/08 05:44:06;;;;;;;6.05;1.10;;;;;;;-140.72;100.00;52837.28;5049832;28;20049;-68
2022/10/08 05:46:33;;;;;;;1.38;0.50;;;;;;;-140.72;100.00;52863.66;5048331;28;20025;-68
2022/10/08 05:49:01;;;;;;;4.18;0.90;;;;;;;-140.72;100.00;52843.38;5050080;28;20037;-67
2022/10/08 05:51:27;;;;;;;1.20;0.70;;;;;;;-140.72;100.00;52877.88;5049621;28;20029;-68
2022/10/08 05:53:55;;;;;;;2.83;0.65;;;;;;;-140.72;100.00;52869.75;5032001;28;20454;-68
2022/10/08 05:56:23;;;;;;;1.70;0.75;;;;;;;-140.72;100.00;52849.47;5042947;28;20419;-68
2022/10/08 05:58:49;;;;;;;1.65;0.52;;;;;;;-140.72;100.00;52849.47;5043492;28;20028;-68
2022/10/08 06:01:30;;;;;;;3.17;0.98;;;;;;;-140.72;100.00;52847.44;5047430;28;20060;-67
2022/10/08 06:03:58;;;;;;;1.52;0.60;;;;;;;-140.72;100.00;52865.69;5043953;28;20029;-69
2022/10/08 06:06:24;;;;;;;2.83;1.02;;;;;;;-140.72;100.00;52837.28;5046274;28;20145;-68
2022/10/08 06:08:54;;;;;;;4.60;1.00;;;;;;;-140.72;100.00;52881.94;5038838;28;20111;-69
2022/10/08 06:11:20;;;;;;;2.35;0.85;;;;;;;-140.72;100.00;52800.75;5035159;28;20029;-68
2022/10/08 06:13:45;;;;;;;1.77;0.95;;;;;;;-140.72;100.00;52853.53;5043277;28;20032;-68
2022/10/08 06:16:11;;;;;;;3.55;0.73;;;;;;;-140.72;100.00;52859.63;5039548;28;20421;-68
2022/10/08 06:18:39;;;;;;;2.65;0.63;;;;;;;-140.72;100.00;52825.13;5046935;28;20028;-69
2022/10/08 06:21:08;;;;;;;1.08;0.40;;;;;;;-140.72;100.00;52865.69;5045028;28;20055;-69
2022/10/08 06:23:34;;;;;;;2.03;0.68;;;;;;;-140.72;100.00;52847.44;5046867;28;20079;-68
2022/10/08 06:26:21;;;;;;;2.15;0.82;;;;;;;-140.72;100.00;52861.66;5044487;28;20021;-69
2022/10/08 06:28:47;;;;;;;1.85;0.55;;;;;;;-140.72;100.00;52821.06;5046789;28;20041;-68
2022/10/08 06:31:13;;;;;;;3.65;0.75;;;;;;;-140.72;100.00;52825.13;5046842;28;20493;-68
2022/10/08 06:33:39;;;;;;;1.23;0.52;;;;;;;-140.72;100.00;52829.19;5046651;28;20021;-68
2022/10/08 06:36:07;;;;;;;1.65;0.30;;;;;;;-140.72;100.00;52861.66;5048137;28;20059;-68
2022/10/08 06:38:33;;;;;;;4.43;0.85;;;;;;;-140.72;100.00;52788.59;5044198;28;20025;-68
2022/10/08 06:40:59;;;;;;;3.38;1.10;;;;;;;-140.72;100.00;52845.41;5046357;28;20343;-69
2022/10/08 06:43:25;;;;;;;1.27;0.68;;;;;;;-140.72;100.00;52810.91;5043993;28;20360;-68
2022/10/08 06:45:51;;;;;;;0.68;0.30;;;;;;;-140.72;100.00;52802.78;5033622;28;20033;-68
2022/10/08 06:48:18;;;;;;;0.47;0.30;;;;;;;-140.72;100.00;52827.16;5041999;28;20052;-69
2022/10/08 06:50:44;;;;;;;0.85;0.40;;;;;;;-140.72;100.00;52847.44;5035812;28;20033;-69
2022/10/08 06:53:10;;;;;;;1.80;0.65;;;;;;;-140.72;100.00;52855.56;5038986;28;20027;-69
2022/10/08 06:55:36;;;;;;;0.68;0.20;;;;;;;-140.72;100.00;52857.59;5039637;28;20025;-69
2022/10/08 06:58:04;;;;;;;5.00;1.00;;;;;;;-140.72;100.00;52814.97;5043765;28;20446;-69
2022/10/08 07:00:30;;;;;;;3.47;0.82;;;;;;;-140.72;100.00;52821.06;5033029;28;20018;-70
2022/10/08 07:02:56;;;;;;;0.95;0.63;;;;;;;-140.72;100.00;52800.75;5044460;28;20369;-68
2022/10/08 07:05:22;;;;;;;2.20;0.55;;;;;;;-140.72;100.00;52817.00;5039664;28;20026;-69
2022/10/08 07:07:48;;;;;;;4.68;0.50;;;;;;;-140.72;100.00;52833.22;5038529;28;20025;-69
2022/10/08 07:10:13;;;;;;;1.85;0.93;;;;;;;-140.72;100.00;52800.75;5043807;28;20519;-70
2022/10/08 07:12:38;;;;;;;3.38;0.55;;;;;;;-140.72;100.00;52833.22;5044547;28;20120;-69
2022/10/08 07:15:04;;;;;;;1.58;0.68;;;;;;;-140.72;100.00;52829.19;5048867;28;20100;-70
2022/10/08 07:17:29;;;;;;;1.95;0.65;;;;;;;-140.72;100.00;52790.63;5047644;28;20079;-70
2022/10/08 07:19:56;;;;;;;1.27;0.30;;;;;;;-140.72;100.00;52859.63;5044074;28;20043;-70
2022/10/08 07:22:27;;;;;;;3.05;0.65;;;;;;;-140.72;100.00;52804.81;5048505;28;20072;-69
2022/10/08 07:24:52;;;;;;;3.05;0.63;;;;;;;-140.72;100.00;52835.25;5052343;28;20448;-69
2022/10/08 07:27:18;;;;;;;1.70;0.50;;;;;;;-140.72;100.00;52825.13;5051125;28;20074;-69
2022/10/08 07:29:44;;;;;;;0.98;0.50;;;;;;;-140.72;100.00;52798.72;5052263;28;20039;-69
2022/10/08 07:32:09;;;;;;;2.22;0.52;;;;;;;-140.72;100.00;52802.78;5050570;28;20029;-69
2022/10/08 07:34:35;;;;;;;2.92;0.30;;;;;;;-140.72;100.00;52827.16;5050286;28;20032;-69
2022/10/08 07:37:03;;;;;;;2.92;0.70;;;;;;;-140.72;100.00;52786.56;5048068;28;20029;-69
2022/10/08 07:39:28;;;;;;;4.28;0.45;;;;;;;-140.72;100.00;52833.22;5043241;28;20405;-69
2022/10/08 07:41:54;;;;;;;2.40;0.93;;;;;;;-140.72;100.00;52784.53;5050210;28;20036;-69
2022/10/08 07:44:20;;;;;;;1.80;0.50;;;;;;;-140.72;100.00;52754.09;5052212;28;20108;-69
2022/10/08 07:46:50;;;;;;;1.20;0.50;;;;;;;-140.72;100.00;52812.94;5039123;28;20017;-69
2022/10/08 07:49:16;;;;;;;;;;;;;;;-140.72;100.00;52817.00;5051688;28;20476;-69
2022/10/08 07:51:45;;;;;;;4.15;1.25;;;;;;;-140.72;100.00;52792.66;5052023;28;19904;-69
2022/10/08 07:54:14;;;;;;;0.30;0.20;;;;;;;-140.72;100.00;52768.28;5043388;28;20047;-68
2022/10/08 07:56:40;;;;;;;1.83;0.75;;;;;;;-140.72;100.00;52790.63;5047310;28;20051;-69
2022/10/08 07:59:06;;;;;;;6.97;0.95;;;;;;;-140.72;100.00;52774.38;5051867;28;20044;-67
2022/10/08 08:01:32;;;;;;;1.27;0.30;;;;;;;-140.72;100.00;52774.38;5049869;28;20041;-67
2022/10/08 08:04:03;;;;;;;2.83;0.40;;;;;;;-140.72;100.00;52743.94;5051103;28;20377;-68
2022/10/08 08:06:31;;;;;;;2.15;0.65;;;;;;;-140.72;100.00;52776.41;5048706;28;20025;-71
2022/10/08 08:08:59;;;;;;;0.95;0.70;;;;;;;-140.72;100.00;52756.13;5047551;28;20369;-70
2022/10/08 08:11:24;;;;;;;4.00;0.70;;;;;;;-140.72;100.00;52786.56;5051897;28;20467;-68
2022/10/08 08:13:51;;;;;;;3.53;0.60;;;;;;;-140.72;100.00;52743.94;5052457;28;20115;-68
2022/10/08 08:16:24;;;;;;;1.55;0.70;;;;;;;-140.72;100.00;52733.78;5045037;28;20472;-68
2022/10/08 08:18:52;;;;;;;5.95;0.50;;;;;;;-140.72;100.00;52772.34;5052199;28;20104;-69
2022/10/08 08:21:20;;;;;;;0.38;0.17;;;;;;;-140.72;100.00;52782.50;5039290;28;20017;-68
2022/10/08 08:23:49;;;;;;;0.82;0.30;;;;;;;-140.72;100.00;52743.94;5048398;28;20453;-69
2022/10/08 08:26:17;;;;;;;4.18;0.70;;;;;;;-140.72;100.00;52739.88;5050972;28;20025;-69
2022/10/08 08:28:42;;;;;;;2.90;0.43;;;;;;;-140.72;100.00;52784.53;5050588;28;20078;-69
2022/10/08 08:31:17;;;;;;;1.25;0.30;;;;;;;-140.72;100.00;52717.56;5043776;28;20458;-68
2022/10/08 08:33:48;;;;;;;4.45;0.55;;;;;;;-140.72;100.00;52760.19;5048701;28;20037;-68
2022/10/08 08:36:14;;;;;;;1.98;0.50;;;;;;;-140.72;100.00;52727.72;5048987;28;20024;-69
2022/10/08 08:38:40;;;;;;;2.58;0.82;;;;;;;-140.72;100.00;52760.19;5046936;28;20036;-69
2022/10/08 08:41:10;;;;;;;1.00;0.28;;;;;;;-140.72;100.00;52776.41;5051111;28;20016;-68
2022/10/08 08:43:35;;;;;;;4.07;0.80;;;;;;;-140.72;100.00;52768.28;5051398;28;20025;-69
2022/10/08 08:46:01;;;;;;;1.70;0.35;;;;;;;-140.72;100.00;52723.66;5038994;28;20492;-69
2022/10/08 08:48:31;;;;;;;0.60;0.35;;;;;;;-140.72;100.00;52756.13;5045274;28;20033;-68
2022/10/08 08:50:58;;;;;;;0.73;0.30;;;;;;;-140.72;100.00;52762.22;5039387;28;20032;-69
2022/10/08 08:53:24;;;;;;;2.83;0.50;;;;;;;-140.72;100.00;52705.38;5049379;28;20377;-69
2022/10/08 08:55:54;;;;;;;1.23;0.50;;;;;;;-140.72;100.00;52758.16;5050287;28;20025;-69
2022/10/08 08:58:43;;;;;;;1.80;0.60;;;;;;;-140.72;100.00;52723.66;5048848;28;20044;-68
2022/10/08 09:01:09;;;;;;;2.85;0.57;;;;;;;-140.72;100.00;52697.28;5043531;28;20085;-70
2022/10/08 09:03:40;;;;;;;5.00;0.60;;;;;;;-140.72;100.00;52764.25;5050073;28;20218;-69
2022/10/08 09:06:13;;;;;;;3.72;0.60;;;;;;;-140.72;100.00;52729.75;5046386;28;20024;-69
2022/10/08 09:08:50;;;;;;;0.70;0.40;;;;;;;-140.72;100.00;52719.59;5049786;28;20017;-70
2022/10/08 09:11:19;;;;;;;1.85;0.35;;;;;;;-140.72;100.00;52727.72;5049837;28;20105;-69
2022/10/08 09:14:20;;;;;;;1.17;0.55;;;;;;;-140.72;100.00;52709.44;5040316;28;20056;-69
2022/10/08 09:16:45;;;;;;;0.82;0.45;;;;;;;-140.72;100.00;52707.41;5036620;28;20041;-70
2022/10/08 09:19:11;;;;;;;3.85;0.82;;;;;;;-140.72;100.00;52715.53;5050398;28;20025;-70
2022/10/08 09:21:36;;;;;;;2.22;0.30;;;;;;;-140.72;100.00;52713.50;5041998;28;20465;-69
2022/10/08 09:24:02;;;;;;;1.05;0.30;;;;;;;-140.72;100.00;52691.19;5051049;28;20032;-69
2022/10/08 09:26:34;;;;;;;0.85;0.43;;;;;;;-140.72;100.00;52674.94;5036399;28;20100;-69
2022/10/08 09:29:01;;;;;;;3.10;0.55;;;;;;;-140.72;100.00;52687.13;5048001;28;20075;-70
2022/10/08 09:31:39;;;;;;;1.55;0.40;;;;;;;-140.72;100.00;52687.13;5044496;28;20057;-69
2022/10/08 09:34:16;;;;;;;2.58;0.60;;;;;;;-140.72;100.00;52715.53;5048840;28;20119;-68
2022/10/08 09:36:46;;;;;;;0.70;0.25;;;;;;;-140.72;100.00;52752.06;5047423;28;20071;-68
2022/10/08 09:39:19;;;;;;;0.50;0.30;;;;;;;-140.72;100.00;52709.44;5049203;28;20027;-70
2022/10/08 09:41:46;;;;;;;1.73;0.68;;;;;;;-140.72;100.00;52741.91;5048533;28;20028;-69
2022/10/08 09:44:24;;;;;;;2.35;0.60;;;;;;;-140.72;100.00;52699.31;5049335;28;20350;-69
2022/10/08 09:47:04;;;;;;;2.42;0.57;;;;;;;-140.72;100.00;52687.13;5042612;28;20021;-69
2022/10/08 09:49:34;;;;;;;0.68;0.30;;;;;;;-140.72;100.00;52693.22;5046888;28;20025;-68
2022/10/08 09:52:05;;;;;;;1.25;0.47;;;;;;;-140.72;100.00;52731.75;5035622;28;20079;-69
2022/10/08 09:55:20;;;;;;;7.70;0.47;;;;;;;-140.72;100.00;52748.00;5045427;28;20032;-69
2022/10/08 09:57:59;;;;;;;4.80;0.40;;;;;;;-140.72;100.00;52658.72;5042606;28;20041;-69
2022/10/08 10:00:27;;;;;;;4.78;0.65;;;;;;;-140.72;100.00;52672.91;5043942;28;20043;-69
2022/10/08 10:02:55;;;;;;;6.13;0.70;;;;;;;-140.72;100.00;52650.59;5043708;28;20030;-69
2022/10/08 10:05:26;;;;;;;1.55;0.22;;;;;;;-140.72;100.00;52648.56;5042447;28;20021;-69
2022/10/08 10:07:52;;;;;;;1.95;0.45;;;;;;;-140.72;100.00;52636.38;5048882;28;20100;-68
2022/10/08 10:10:23;;;;;;;1.52;0.32;;;;;;;-140.72;100.00;52664.81;5048961;28;20440;-70
2022/10/08 10:12:54;;;;;;;0.85;0.32;;;;;;;-140.72;100.00;52622.19;5042894;28;20076;-69
2022/10/08 10:15:30;;;;;;;2.40;0.40;;;;;;;-140.72;100.00;52679.00;5030286;28;20029;-69
2022/10/08 10:18:00;;;;;;;1.63;0.65;;;;;;;-140.72;100.00;52644.50;5044215;28;20025;-69
2022/10/08 10:20:43;;;;;;;2.75;0.68;;;;;;;-140.72;100.00;52672.91;5042303;28;20072;-69
2022/10/08 10:23:19;;;;;;;1.73;0.38;;;;;;;-140.72;100.00;52607.97;5043439;28;20041;-68
2022/10/08 10:26:05;;;;;;;1.23;0.30;;;;;;;-140.72;100.00;52642.47;5049646;28;20020;-68
2022/10/08 10:28:34;;;;;;;2.10;0.73;;;;;;;-140.72;100.00;52674.94;5035774;28;20498;-68
2022/10/08 10:31:04;;;;;;;1.75;0.45;;;;;;;-140.72;100.00;52685.09;5048838;28;20013;-67
2022/10/08 10:33:36;;;;;;;0.25;0.20;;;;;;;-140.72;100.00;52672.91;5036257;28;20029;-68
2022/10/08 10:36:11;;;;;;;1.80;0.43;;;;;;;-140.72;100.00;52672.91;5047890;28;20449;-69
2022/10/08 10:38:44;;;;;;;1.48;0.50;;;;;;;-140.72;100.00;52707.41;5034647;28;20020;-69
2022/10/08 10:41:49;;;;;;;3.97;0.52;;;;;;;-140.72;100.00;52640.44;5048592;28;20082;-68
2022/10/08 10:44:22;;;;;;;1.33;0.40;;;;;;;-140.72;100.00;52622.19;5046844;28;20028;-68
2022/10/08 10:46:55;;;;;;;1.60;0.50;;;;;;;-140.72;53.29;52547.09;5043395;28;20021;-67
2022/10/08 10:49:37;;;;;;;3.60;0.47;;;;;;;-140.72;0.00;52488.25;5041198;28;20450;-68
2022/10/08 10:52:08;;;;;;;2.28;0.40;;;;;;;-140.72;0.00;52480.16;5042041;28;20487;-70
2022/10/08 10:55:00;;;;;;;3.13;0.40;;;;;;;-140.72;0.00;52378.69;5034119;28;20049;-67
2022/10/08 10:57:40;;;;;;;2.60;0.55;;;;;;;-140.72;0.00;52401.00;5041800;28;20012;-67
2022/10/08 11:00:18;;;;;;;3.45;0.40;;;;;;;-140.72;0.00;52370.56;5052616;28;20098;-67
2022/10/08 11:03:06;;;;;;;1.65;0.32;;;;;;;-140.72;0.00;52291.44;5051374;28;20468;-67
2022/10/08 11:05:35;;;;;;;0.30;0.20;;;;;;;-140.72;0.00;52417.25;5052115;28;20390;-69
2022/10/08 11:08:09;;;;;;;0.80;0.40;;;;;;;-140.72;0.00;52411.16;5049611;28;20565;-68
2022/10/08 11:11:08;;;;;;;0.55;0.20;;;;;;;-140.72;0.00;52431.44;5044901;28;20025;-69
2022/10/08 11:14:19;;;;;;;1.45;0.63;;;;;;;-140.72;0.00;52330.00;5042280;28;20059;-69
2022/10/08 11:17:03;;;;;;;2.40;0.45;;;;;;;-140.72;0.00;52364.47;5042311;28;20033;-70
2022/10/08 11:19:43;;;;;;;3.08;0.40;;;;;;;-140.72;0.00;52360.44;5038538;28;20139;-67
2022/10/08 11:22:17;;;;;;;1.20;0.30;;;;;;;-140.72;0.00;52279.25;5051718;28;20021;-67
2022/10/08 11:24:54;;;;;;;2.05;0.30;;;;;;;-140.72;0.00;52301.59;5052784;28;20078;-69